sensor_id;sensor_type;location;lat;lon;timestamp;P1;durP1;ratioP1;P2;durP2;ratioP2
64595;SDS011;51003;51.628;6.670;2022-09-09T00:00:16;1.67;;;1.53;;
64595;SDS011;51003;51.628;6.670;2022-09-09T00:02:49;1.80;;;1.70;;
64595;SDS011;51003;51.628;6.670;2022-09-09T00:08:07;1.77;;;1.43;;
64595;SDS011;51003;51.628;6.670;2022-09-09T00:10:40;1.50;;;1.40;;
64595;SDS011;51003;51.628;6.670;2022-09-09T00:18:45;2.13;;;1.53;;
64595;SDS011;51003;51.628;6.670;2022-09-09T00:21:16;3.07;;;1.57;;
64595;SDS011;51003;51.628;6.670;2022-09-09T00:23:53;8.10;;;1.60;;
64595;SDS011;51003;51.628;6.670;2022-09-09T00:29:08;9.80;;;2.13;;
64595;SDS011;51003;51.628;6.670;2022-09-09T00:31:35;3.20;;;1.43;;
64595;SDS011;51003;51.628;6.670;2022-09-09T00:36:37;1.97;;;1.60;;
64595;SDS011;51003;51.628;6.670;2022-09-09T00:39:03;1.83;;;1.70;;
64595;SDS011;51003;51.628;6.670;2022-09-09T00:41:49;2.13;;;1.60;;
64595;SDS011;51003;51.628;6.670;2022-09-09T00:44:34;3.77;;;1.63;;
64595;SDS011;51003;51.628;6.670;2022-09-09T00:52:37;1.77;;;1.63;;
64595;SDS011;51003;51.628;6.670;2022-09-09T00:57:43;1.93;;;1.60;;
64595;SDS011;51003;51.628;6.670;2022-09-09T01:07:53;2.43;;;1.60;;
64595;SDS011;51003;51.628;6.670;2022-09-09T01:10:31;7.00;;;1.70;;
64595;SDS011;51003;51.628;6.670;2022-09-09T01:13:08;2.70;;;1.70;;
64595;SDS011;51003;51.628;6.670;2022-09-09T01:15:40;3.93;;;1.93;;
64595;SDS011;51003;51.628;6.670;2022-09-09T01:18:08;2.13;;;1.93;;
64595;SDS011;51003;51.628;6.670;2022-09-09T01:29:00;2.70;;;2.50;;
64595;SDS011;51003;51.628;6.670;2022-09-09T01:31:38;1.97;;;1.87;;
64595;SDS011;51003;51.628;6.670;2022-09-09T01:34:13;3.57;;;2.30;;
64595;SDS011;51003;51.628;6.670;2022-09-09T01:36:43;1.90;;;1.80;;
64595;SDS011;51003;51.628;6.670;2022-09-09T01:39:09;5.67;;;1.83;;
64595;SDS011;51003;51.628;6.670;2022-09-09T01:41:35;2.10;;;1.90;;
64595;SDS011;51003;51.628;6.670;2022-09-09T01:44:00;3.10;;;1.80;;
64595;SDS011;51003;51.628;6.670;2022-09-09T01:46:26;3.20;;;2.00;;
64595;SDS011;51003;51.628;6.670;2022-09-09T01:48:52;4.13;;;1.60;;
64595;SDS011;51003;51.628;6.670;2022-09-09T01:51:18;2.47;;;1.90;;
64595;SDS011;51003;51.628;6.670;2022-09-09T01:53:44;1.70;;;1.60;;
64595;SDS011;51003;51.628;6.670;2022-09-09T02:04:40;4.20;;;1.87;;
64595;SDS011;51003;51.628;6.670;2022-09-09T02:12:55;3.30;;;2.40;;
64595;SDS011;51003;51.628;6.670;2022-09-09T02:16:03;2.57;;;2.30;;
64595;SDS011;51003;51.628;6.670;2022-09-09T02:18:26;5.53;;;2.33;;
64595;SDS011;51003;51.628;6.670;2022-09-09T02:20:53;5.63;;;2.60;;
64595;SDS011;51003;51.628;6.670;2022-09-09T02:23:19;5.70;;;2.57;;
64595;SDS011;51003;51.628;6.670;2022-09-09T02:25:44;5.37;;;2.60;;
64595;SDS011;51003;51.628;6.670;2022-09-09T02:28:11;7.23;;;2.80;;
64595;SDS011;51003;51.628;6.670;2022-09-09T02:30:39;6.30;;;2.70;;
64595;SDS011;51003;51.628;6.670;2022-09-09T02:33:06;5.40;;;3.30;;
64595;SDS011;51003;51.628;6.670;2022-09-09T02:35:32;6.80;;;3.83;;
64595;SDS011;51003;51.628;6.670;2022-09-09T02:38:02;7.80;;;3.70;;
64595;SDS011;51003;51.628;6.670;2022-09-09T02:40:31;4.77;;;4.37;;
64595;SDS011;51003;51.628;6.670;2022-09-09T02:42:56;7.93;;;4.50;;
64595;SDS011;51003;51.628;6.670;2022-09-09T02:45:23;5.90;;;4.53;;
64595;SDS011;51003;51.628;6.670;2022-09-09T02:56:45;5.33;;;4.80;;
64595;SDS011;51003;51.628;6.670;2022-09-09T02:59:14;6.40;;;4.97;;
64595;SDS011;51003;51.628;6.670;2022-09-09T03:01:43;5.90;;;4.70;;
64595;SDS011;51003;51.628;6.670;2022-09-09T03:04:09;6.40;;;4.60;;
64595;SDS011;51003;51.628;6.670;2022-09-09T03:06:34;6.83;;;4.63;;
64595;SDS011;51003;51.628;6.670;2022-09-09T03:09:00;4.97;;;4.47;;
64595;SDS011;51003;51.628;6.670;2022-09-09T03:11:27;5.63;;;4.63;;
64595;SDS011;51003;51.628;6.670;2022-09-09T03:13:53;5.27;;;4.43;;
64595;SDS011;51003;51.628;6.670;2022-09-09T03:16:20;7.53;;;4.43;;
64595;SDS011;51003;51.628;6.670;2022-09-09T03:18:47;5.70;;;5.20;;
64595;SDS011;51003;51.628;6.670;2022-09-09T03:21:12;5.33;;;4.00;;
64595;SDS011;51003;51.628;6.670;2022-09-09T03:23:37;4.73;;;4.33;;
64595;SDS011;51003;51.628;6.670;2022-09-09T03:26:03;5.63;;;4.00;;
64595;SDS011;51003;51.628;6.670;2022-09-09T03:28:28;3.67;;;3.37;;
64595;SDS011;51003;51.628;6.670;2022-09-09T03:31:02;7.07;;;3.43;;
64595;SDS011;51003;51.628;6.670;2022-09-09T03:33:29;4.60;;;3.03;;
64595;SDS011;51003;51.628;6.670;2022-09-09T03:35:55;4.97;;;2.90;;
64595;SDS011;51003;51.628;6.670;2022-09-09T03:38:22;2.87;;;2.67;;
64595;SDS011;51003;51.628;6.670;2022-09-09T03:40:49;2.60;;;2.40;;
64595;SDS011;51003;51.628;6.670;2022-09-09T03:43:16;4.30;;;2.43;;
64595;SDS011;51003;51.628;6.670;2022-09-09T03:45:44;4.23;;;2.40;;
64595;SDS011;51003;51.628;6.670;2022-09-09T03:48:12;7.80;;;2.50;;
64595;SDS011;51003;51.628;6.670;2022-09-09T03:50:37;5.47;;;2.20;;
64595;SDS011;51003;51.628;6.670;2022-09-09T03:53:02;2.80;;;2.13;;
64595;SDS011;51003;51.628;6.670;2022-09-09T03:55:28;2.60;;;2.20;;
64595;SDS011;51003;51.628;6.670;2022-09-09T03:57:53;2.30;;;2.10;;
64595;SDS011;51003;51.628;6.670;2022-09-09T04:00:18;7.17;;;2.20;;
64595;SDS011;51003;51.628;6.670;2022-09-09T04:02:44;3.23;;;2.20;;
64595;SDS011;51003;51.628;6.670;2022-09-09T04:05:10;5.13;;;2.33;;
64595;SDS011;51003;51.628;6.670;2022-09-09T04:07:36;4.43;;;2.23;;
64595;SDS011;51003;51.628;6.670;2022-09-09T04:10:01;5.20;;;2.60;;
64595;SDS011;51003;51.628;6.670;2022-09-09T04:12:27;7.87;;;2.27;;
64595;SDS011;51003;51.628;6.670;2022-09-09T04:14:52;8.70;;;2.30;;
64595;SDS011;51003;51.628;6.670;2022-09-09T04:17:17;2.77;;;2.30;;
64595;SDS011;51003;51.628;6.670;2022-09-09T04:19:43;3.80;;;2.20;;
64595;SDS011;51003;51.628;6.670;2022-09-09T04:22:08;4.43;;;2.40;;
64595;SDS011;51003;51.628;6.670;2022-09-09T04:24:34;3.07;;;1.90;;
64595;SDS011;51003;51.628;6.670;2022-09-09T04:27:00;4.40;;;2.67;;
64595;SDS011;51003;51.628;6.670;2022-09-09T04:29:25;6.43;;;2.63;;
64595;SDS011;51003;51.628;6.670;2022-09-09T04:31:51;3.50;;;2.37;;
64595;SDS011;51003;51.628;6.670;2022-09-09T04:34:16;6.60;;;2.27;;
64595;SDS011;51003;51.628;6.670;2022-09-09T04:36:42;5.60;;;2.23;;
64595;SDS011;51003;51.628;6.670;2022-09-09T04:39:07;8.30;;;2.50;;
64595;SDS011;51003;51.628;6.670;2022-09-09T04:41:33;3.77;;;2.60;;
64595;SDS011;51003;51.628;6.670;2022-09-09T04:44:00;3.93;;;2.37;;
64595;SDS011;51003;51.628;6.670;2022-09-09T04:46:25;7.53;;;2.60;;
64595;SDS011;51003;51.628;6.670;2022-09-09T04:48:51;7.80;;;2.43;;
64595;SDS011;51003;51.628;6.670;2022-09-09T04:51:17;10.13;;;2.77;;
64595;SDS011;51003;51.628;6.670;2022-09-09T04:53:42;4.47;;;2.40;;
64595;SDS011;51003;51.628;6.670;2022-09-09T04:58:35;4.90;;;2.10;;
64595;SDS011;51003;51.628;6.670;2022-09-09T05:01:07;6.30;;;2.60;;
64595;SDS011;51003;51.628;6.670;2022-09-09T05:03:34;4.03;;;2.40;;
64595;SDS011;51003;51.628;6.670;2022-09-09T05:06:07;5.90;;;2.10;;
64595;SDS011;51003;51.628;6.670;2022-09-09T05:08:34;7.60;;;2.50;;
64595;SDS011;51003;51.628;6.670;2022-09-09T05:11:01;7.30;;;2.80;;
64595;SDS011;51003;51.628;6.670;2022-09-09T05:13:26;3.33;;;2.30;;
64595;SDS011;51003;51.628;6.670;2022-09-09T05:15:53;6.60;;;2.70;;
64595;SDS011;51003;51.628;6.670;2022-09-09T05:18:19;5.23;;;2.50;;
64595;SDS011;51003;51.628;6.670;2022-09-09T05:20:44;6.60;;;2.20;;
64595;SDS011;51003;51.628;6.670;2022-09-09T05:23:09;4.10;;;2.13;;
64595;SDS011;51003;51.628;6.670;2022-09-09T05:25:36;5.20;;;2.17;;
64595;SDS011;51003;51.628;6.670;2022-09-09T05:28:02;6.70;;;2.33;;
64595;SDS011;51003;51.628;6.670;2022-09-09T05:30:28;4.27;;;2.40;;
64595;SDS011;51003;51.628;6.670;2022-09-09T05:32:55;8.50;;;2.40;;
64595;SDS011;51003;51.628;6.670;2022-09-09T05:35:24;8.57;;;2.73;;
64595;SDS011;51003;51.628;6.670;2022-09-09T05:37:50;6.67;;;1.93;;
64595;SDS011;51003;51.628;6.670;2022-09-09T05:40:15;7.13;;;2.43;;
64595;SDS011;51003;51.628;6.670;2022-09-09T05:42:47;6.60;;;2.50;;
64595;SDS011;51003;51.628;6.670;2022-09-09T05:45:12;4.03;;;2.20;;
64595;SDS011;51003;51.628;6.670;2022-09-09T05:47:37;7.50;;;2.77;;
64595;SDS011;51003;51.628;6.670;2022-09-09T05:50:03;11.30;;;3.43;;
64595;SDS011;51003;51.628;6.670;2022-09-09T05:52:29;10.00;;;2.77;;
64595;SDS011;51003;51.628;6.670;2022-09-09T05:54:54;6.83;;;2.80;;
64595;SDS011;51003;51.628;6.670;2022-09-09T05:57:21;3.13;;;2.20;;
64595;SDS011;51003;51.628;6.670;2022-09-09T05:59:47;5.50;;;2.80;;
64595;SDS011;51003;51.628;6.670;2022-09-09T06:02:12;7.43;;;2.47;;
64595;SDS011;51003;51.628;6.670;2022-09-09T06:04:38;4.50;;;2.90;;
64595;SDS011;51003;51.628;6.670;2022-09-09T06:07:04;4.10;;;2.90;;
64595;SDS011;51003;51.628;6.670;2022-09-09T06:09:30;8.17;;;2.80;;
64595;SDS011;51003;51.628;6.670;2022-09-09T06:30:02;4.23;;;2.50;;
64595;SDS011;51003;51.628;6.670;2022-09-09T06:32:28;5.40;;;2.77;;
64595;SDS011;51003;51.628;6.670;2022-09-09T06:42:40;6.57;;;2.70;;
64595;SDS011;51003;51.628;6.670;2022-09-09T06:45:06;6.03;;;2.57;;
64595;SDS011;51003;51.628;6.670;2022-09-09T06:47:32;4.70;;;2.03;;
64595;SDS011;51003;51.628;6.670;2022-09-09T06:49:58;4.50;;;2.27;;
64595;SDS011;51003;51.628;6.670;2022-09-09T06:52:23;7.27;;;2.57;;
64595;SDS011;51003;51.628;6.670;2022-09-09T06:54:49;6.67;;;2.60;;
64595;SDS011;51003;51.628;6.670;2022-09-09T07:18:00;6.87;;;2.47;;
64595;SDS011;51003;51.628;6.670;2022-09-09T07:20:26;14.60;;;2.70;;
64595;SDS011;51003;51.628;6.670;2022-09-09T07:22:54;5.87;;;2.30;;
64595;SDS011;51003;51.628;6.670;2022-09-09T07:26:11;6.07;;;2.60;;
64595;SDS011;51003;51.628;6.670;2022-09-09T07:28:58;15.53;;;2.20;;
64595;SDS011;51003;51.628;6.670;2022-09-09T07:31:31;3.93;;;1.90;;
64595;SDS011;51003;51.628;6.670;2022-09-09T07:33:58;5.73;;;1.90;;
64595;SDS011;51003;51.628;6.670;2022-09-09T07:36:26;26.90;;;2.50;;
64595;SDS011;51003;51.628;6.670;2022-09-09T07:39:10;5.43;;;2.00;;
64595;SDS011;51003;51.628;6.670;2022-09-09T07:42:14;2.90;;;1.80;;
64595;SDS011;51003;51.628;6.670;2022-09-09T07:44:42;8.37;;;2.30;;
64595;SDS011;51003;51.628;6.670;2022-09-09T07:47:10;5.07;;;1.90;;
64595;SDS011;51003;51.628;6.670;2022-09-09T07:49:51;4.73;;;2.00;;
64595;SDS011;51003;51.628;6.670;2022-09-09T07:53:25;5.33;;;2.03;;
64595;SDS011;51003;51.628;6.670;2022-09-09T07:55:51;5.67;;;2.10;;
64595;SDS011;51003;51.628;6.670;2022-09-09T07:58:16;9.13;;;2.40;;
64595;SDS011;51003;51.628;6.670;2022-09-09T08:00:41;5.30;;;1.90;;
64595;SDS011;51003;51.628;6.670;2022-09-09T08:03:10;3.73;;;1.60;;
64595;SDS011;51003;51.628;6.670;2022-09-09T08:05:38;4.80;;;1.73;;
64595;SDS011;51003;51.628;6.670;2022-09-09T08:08:19;4.97;;;2.03;;
64595;SDS011;51003;51.628;6.670;2022-09-09T08:10:47;6.47;;;2.23;;
64595;SDS011;51003;51.628;6.670;2022-09-09T08:13:17;5.83;;;2.03;;
64595;SDS011;51003;51.628;6.670;2022-09-09T08:15:43;7.03;;;1.90;;
64595;SDS011;51003;51.628;6.670;2022-09-09T08:18:22;8.60;;;2.07;;
64595;SDS011;51003;51.628;6.670;2022-09-09T08:21:21;3.37;;;1.60;;
64595;SDS011;51003;51.628;6.670;2022-09-09T08:23:54;5.70;;;2.20;;
64595;SDS011;51003;51.628;6.670;2022-09-09T08:26:22;2.80;;;1.60;;
64595;SDS011;51003;51.628;6.670;2022-09-09T08:28:52;2.70;;;1.50;;
64595;SDS011;51003;51.628;6.670;2022-09-09T08:34:38;2.97;;;1.60;;
64595;SDS011;51003;51.628;6.670;2022-09-09T08:37:03;4.97;;;1.80;;
64595;SDS011;51003;51.628;6.670;2022-09-09T08:39:28;3.00;;;1.60;;
64595;SDS011;51003;51.628;6.670;2022-09-09T08:44:41;6.90;;;2.07;;
64595;SDS011;51003;51.628;6.670;2022-09-09T08:50:34;2.77;;;1.67;;
64595;SDS011;51003;51.628;6.670;2022-09-09T08:53:20;4.47;;;1.70;;
64595;SDS011;51003;51.628;6.670;2022-09-09T08:58:31;2.30;;;1.73;;
64595;SDS011;51003;51.628;6.670;2022-09-09T09:03:51;3.43;;;1.60;;
64595;SDS011;51003;51.628;6.670;2022-09-09T09:12:12;2.00;;;1.33;;
64595;SDS011;51003;51.628;6.670;2022-09-09T09:14:41;2.40;;;1.60;;
64595;SDS011;51003;51.628;6.670;2022-09-09T09:22:49;4.20;;;1.97;;
64595;SDS011;51003;51.628;6.670;2022-09-09T09:25:34;3.50;;;1.43;;
64595;SDS011;51003;51.628;6.670;2022-09-09T09:44:01;4.87;;;1.90;;
64595;SDS011;51003;51.628;6.670;2022-09-09T11:13:09;3.47;;;1.63;;
64595;SDS011;51003;51.628;6.670;2022-09-09T11:15:41;3.30;;;1.30;;
64595;SDS011;51003;51.628;6.670;2022-09-09T11:18:13;3.73;;;1.30;;
64595;SDS011;51003;51.628;6.670;2022-09-09T11:21:37;2.00;;;1.47;;
64595;SDS011;51003;51.628;6.670;2022-09-09T11:24:11;4.43;;;1.70;;
64595;SDS011;51003;51.628;6.670;2022-09-09T11:26:45;2.23;;;1.67;;
64595;SDS011;51003;51.628;6.670;2022-09-09T11:32:28;4.63;;;1.70;;
64595;SDS011;51003;51.628;6.670;2022-09-09T11:35:45;3.47;;;1.80;;
64595;SDS011;51003;51.628;6.670;2022-09-09T11:40:58;3.57;;;1.60;;
64595;SDS011;51003;51.628;6.670;2022-09-09T11:43:44;2.70;;;1.63;;
64595;SDS011;51003;51.628;6.670;2022-09-09T11:46:18;1.93;;;1.53;;
64595;SDS011;51003;51.628;6.670;2022-09-09T11:49:02;1.80;;;1.40;;
64595;SDS011;51003;51.628;6.670;2022-09-09T11:51:32;3.37;;;1.43;;
64595;SDS011;51003;51.628;6.670;2022-09-09T11:56:57;5.50;;;1.43;;
64595;SDS011;51003;51.628;6.670;2022-09-09T11:59:35;4.17;;;1.60;;
64595;SDS011;51003;51.628;6.670;2022-09-09T12:07:30;5.23;;;1.60;;
64595;SDS011;51003;51.628;6.670;2022-09-09T12:12:35;2.80;;;1.20;;
64595;SDS011;51003;51.628;6.670;2022-09-09T12:17:46;5.80;;;1.67;;
64595;SDS011;51003;51.628;6.670;2022-09-09T12:31:21;1.77;;;1.50;;
64595;SDS011;51003;51.628;6.670;2022-09-09T12:33:50;2.30;;;1.40;;
64595;SDS011;51003;51.628;6.670;2022-09-09T12:36:18;2.40;;;1.10;;
64595;SDS011;51003;51.628;6.670;2022-09-09T12:38:46;4.47;;;1.37;;
64595;SDS011;51003;51.628;6.670;2022-09-09T12:41:23;2.80;;;1.70;;
64595;SDS011;51003;51.628;6.670;2022-09-09T12:44:22;3.97;;;1.87;;
64595;SDS011;51003;51.628;6.670;2022-09-09T12:49:53;2.10;;;1.63;;
64595;SDS011;51003;51.628;6.670;2022-09-09T12:55:51;7.80;;;2.30;;
64595;SDS011;51003;51.628;6.670;2022-09-09T12:58:24;5.60;;;2.00;;
64595;SDS011;51003;51.628;6.670;2022-09-09T13:00:51;3.20;;;2.20;;
64595;SDS011;51003;51.628;6.670;2022-09-09T13:06:31;3.73;;;2.00;;
64595;SDS011;51003;51.628;6.670;2022-09-09T13:08:58;3.27;;;2.13;;
64595;SDS011;51003;51.628;6.670;2022-09-09T13:11:26;3.43;;;1.90;;
64595;SDS011;51003;51.628;6.670;2022-09-09T13:14:12;2.20;;;2.00;;
64595;SDS011;51003;51.628;6.670;2022-09-09T13:17:19;4.37;;;1.70;;
64595;SDS011;51003;51.628;6.670;2022-09-09T13:20:19;2.57;;;1.60;;
64595;SDS011;51003;51.628;6.670;2022-09-09T13:22:46;2.37;;;1.60;;
64595;SDS011;51003;51.628;6.670;2022-09-09T13:25:51;1.97;;;1.30;;
64595;SDS011;51003;51.628;6.670;2022-09-09T13:35:23;1.77;;;1.43;;
64595;SDS011;51003;51.628;6.670;2022-09-09T13:41:11;2.10;;;1.40;;
64595;SDS011;51003;51.628;6.670;2022-09-09T13:43:49;2.60;;;1.53;;
64595;SDS011;51003;51.628;6.670;2022-09-09T13:46:27;2.03;;;1.27;;
64595;SDS011;51003;51.628;6.670;2022-09-09T13:49:27;2.37;;;1.30;;
64595;SDS011;51003;51.628;6.670;2022-09-09T13:52:02;4.70;;;1.40;;
64595;SDS011;51003;51.628;6.670;2022-09-09T13:54:53;3.20;;;1.60;;
64595;SDS011;51003;51.628;6.670;2022-09-09T13:57:24;2.63;;;1.80;;
64595;SDS011;51003;51.628;6.670;2022-09-09T14:07:02;2.97;;;1.87;;
64595;SDS011;51003;51.628;6.670;2022-09-09T14:09:28;2.60;;;1.50;;
64595;SDS011;51003;51.628;6.670;2022-09-09T14:12:08;4.20;;;1.60;;
64595;SDS011;51003;51.628;6.670;2022-09-09T14:14:37;1.53;;;1.40;;
64595;SDS011;51003;51.628;6.670;2022-09-09T14:17:42;2.13;;;1.67;;
64595;SDS011;51003;51.628;6.670;2022-09-09T14:20:08;2.10;;;1.60;;
64595;SDS011;51003;51.628;6.670;2022-09-09T14:22:42;4.70;;;1.70;;
64595;SDS011;51003;51.628;6.670;2022-09-09T14:25:09;4.27;;;1.80;;
64595;SDS011;51003;51.628;6.670;2022-09-09T14:27:36;2.80;;;1.60;;
64595;SDS011;51003;51.628;6.670;2022-09-09T14:30:03;3.00;;;1.50;;
64595;SDS011;51003;51.628;6.670;2022-09-09T14:32:29;2.30;;;1.80;;
64595;SDS011;51003;51.628;6.670;2022-09-09T14:34:55;4.57;;;1.80;;
64595;SDS011;51003;51.628;6.670;2022-09-09T14:37:21;1.70;;;1.30;;
64595;SDS011;51003;51.628;6.670;2022-09-09T14:39:46;1.97;;;1.50;;
64595;SDS011;51003;51.628;6.670;2022-09-09T14:45:54;2.60;;;1.70;;
64595;SDS011;51003;51.628;6.670;2022-09-09T14:55:08;4.33;;;1.70;;
64595;SDS011;51003;51.628;6.670;2022-09-09T14:57:34;2.07;;;1.50;;
64595;SDS011;51003;51.628;6.670;2022-09-09T15:00:00;3.10;;;1.77;;
64595;SDS011;51003;51.628;6.670;2022-09-09T15:02:28;1.50;;;1.40;;
64595;SDS011;51003;51.628;6.670;2022-09-09T15:04:55;2.47;;;1.60;;
64595;SDS011;51003;51.628;6.670;2022-09-09T15:07:23;1.83;;;1.60;;
64595;SDS011;51003;51.628;6.670;2022-09-09T15:09:54;1.80;;;1.40;;
64595;SDS011;51003;51.628;6.670;2022-09-09T15:12:20;4.80;;;1.50;;
64595;SDS011;51003;51.628;6.670;2022-09-09T15:14:46;2.60;;;1.90;;
64595;SDS011;51003;51.628;6.670;2022-09-09T15:20:34;2.50;;;1.60;;
64595;SDS011;51003;51.628;6.670;2022-09-09T15:23:02;2.17;;;1.73;;
64595;SDS011;51003;51.628;6.670;2022-09-09T15:25:27;2.20;;;1.60;;
64595;SDS011;51003;51.628;6.670;2022-09-09T15:31:23;2.70;;;1.30;;
64595;SDS011;51003;51.628;6.670;2022-09-09T15:33:51;2.60;;;1.47;;
64595;SDS011;51003;51.628;6.670;2022-09-09T15:36:21;1.83;;;1.50;;
64595;SDS011;51003;51.628;6.670;2022-09-09T15:38:50;1.73;;;1.40;;
64595;SDS011;51003;51.628;6.670;2022-09-09T15:41:17;3.57;;;1.43;;
64595;SDS011;51003;51.628;6.670;2022-09-09T15:43:44;3.90;;;1.90;;
64595;SDS011;51003;51.628;6.670;2022-09-09T15:46:21;1.70;;;1.60;;
64595;SDS011;51003;51.628;6.670;2022-09-09T15:48:55;3.73;;;1.53;;
64595;SDS011;51003;51.628;6.670;2022-09-09T15:51:22;2.60;;;1.43;;
64595;SDS011;51003;51.628;6.670;2022-09-09T15:53:56;1.97;;;1.40;;
64595;SDS011;51003;51.628;6.670;2022-09-09T15:56:24;2.03;;;1.30;;
64595;SDS011;51003;51.628;6.670;2022-09-09T15:58:51;1.93;;;1.50;;
64595;SDS011;51003;51.628;6.670;2022-09-09T16:01:17;1.97;;;1.30;;
64595;SDS011;51003;51.628;6.670;2022-09-09T16:03:43;2.90;;;1.70;;
64595;SDS011;51003;51.628;6.670;2022-09-09T16:06:13;1.80;;;1.30;;
64595;SDS011;51003;51.628;6.670;2022-09-09T16:08:40;3.13;;;1.77;;
64595;SDS011;51003;51.628;6.670;2022-09-09T16:11:31;1.60;;;1.50;;
64595;SDS011;51003;51.628;6.670;2022-09-09T16:14:28;1.77;;;1.50;;
64595;SDS011;51003;51.628;6.670;2022-09-09T16:17:30;4.50;;;1.90;;
64595;SDS011;51003;51.628;6.670;2022-09-09T16:19:59;1.70;;;1.60;;
64595;SDS011;51003;51.628;6.670;2022-09-09T16:22:24;4.70;;;1.90;;
64595;SDS011;51003;51.628;6.670;2022-09-09T16:24:50;3.17;;;1.70;;
64595;SDS011;51003;51.628;6.670;2022-09-09T16:27:45;1.77;;;1.67;;
64595;SDS011;51003;51.628;6.670;2022-09-09T16:30:11;2.30;;;2.20;;
64595;SDS011;51003;51.628;6.670;2022-09-09T16:32:37;2.57;;;1.77;;
64595;SDS011;51003;51.628;6.670;2022-09-09T16:35:03;5.13;;;2.27;;
64595;SDS011;51003;51.628;6.670;2022-09-09T16:37:30;2.77;;;1.80;;
64595;SDS011;51003;51.628;6.670;2022-09-09T16:39:58;1.77;;;1.60;;
64595;SDS011;51003;51.628;6.670;2022-09-09T16:42:24;1.87;;;1.73;;
64595;SDS011;51003;51.628;6.670;2022-09-09T16:44:52;3.60;;;2.00;;
64595;SDS011;51003;51.628;6.670;2022-09-09T16:47:24;2.00;;;1.70;;
64595;SDS011;51003;51.628;6.670;2022-09-09T16:50:00;2.30;;;1.60;;
64595;SDS011;51003;51.628;6.670;2022-09-09T16:52:26;2.60;;;1.73;;
64595;SDS011;51003;51.628;6.670;2022-09-09T16:54:51;7.93;;;2.73;;
64595;SDS011;51003;51.628;6.670;2022-09-09T16:57:17;3.90;;;1.70;;
64595;SDS011;51003;51.628;6.670;2022-09-09T16:59:43;4.10;;;1.67;;
64595;SDS011;51003;51.628;6.670;2022-09-09T17:02:09;2.10;;;1.73;;
64595;SDS011;51003;51.628;6.670;2022-09-09T17:04:41;5.60;;;1.70;;
64595;SDS011;51003;51.628;6.670;2022-09-09T17:07:07;1.77;;;1.60;;
64595;SDS011;51003;51.628;6.670;2022-09-09T17:09:33;3.20;;;1.97;;
64595;SDS011;51003;51.628;6.670;2022-09-09T17:15:00;4.87;;;2.10;;
64595;SDS011;51003;51.628;6.670;2022-09-09T17:17:28;3.03;;;2.10;;
64595;SDS011;51003;51.628;6.670;2022-09-09T17:19:54;4.70;;;2.00;;
64595;SDS011;51003;51.628;6.670;2022-09-09T17:22:21;7.50;;;2.33;;
64595;SDS011;51003;51.628;6.670;2022-09-09T17:24:48;3.57;;;2.43;;
64595;SDS011;51003;51.628;6.670;2022-09-09T17:27:13;3.90;;;2.40;;
64595;SDS011;51003;51.628;6.670;2022-09-09T17:29:39;6.87;;;2.80;;
64595;SDS011;51003;51.628;6.670;2022-09-09T17:32:04;3.70;;;2.70;;
64595;SDS011;51003;51.628;6.670;2022-09-09T17:34:38;3.80;;;2.40;;
64595;SDS011;51003;51.628;6.670;2022-09-09T17:37:03;4.07;;;2.73;;
64595;SDS011;51003;51.628;6.670;2022-09-09T17:42:52;5.53;;;2.40;;
64595;SDS011;51003;51.628;6.670;2022-09-09T17:45:18;4.63;;;2.80;;
64595;SDS011;51003;51.628;6.670;2022-09-09T17:47:44;3.20;;;2.33;;
64595;SDS011;51003;51.628;6.670;2022-09-09T17:50:23;8.80;;;3.27;;
64595;SDS011;51003;51.628;6.670;2022-09-09T17:56:13;6.77;;;2.70;;
64595;SDS011;51003;51.628;6.670;2022-09-09T18:02:18;2.77;;;2.50;;
64595;SDS011;51003;51.628;6.670;2022-09-09T18:04:50;2.53;;;2.20;;
64595;SDS011;51003;51.628;6.670;2022-09-09T18:07:21;2.90;;;1.97;;
64595;SDS011;51003;51.628;6.670;2022-09-09T18:10:00;4.50;;;1.77;;
64595;SDS011;51003;51.628;6.670;2022-09-09T18:12:32;2.47;;;1.30;;
64595;SDS011;51003;51.628;6.670;2022-09-09T18:14:58;1.40;;;1.30;;
64595;SDS011;51003;51.628;6.670;2022-09-09T18:17:27;1.40;;;1.30;;
64595;SDS011;51003;51.628;6.670;2022-09-09T18:19:54;2.07;;;1.10;;
64595;SDS011;51003;51.628;6.670;2022-09-09T18:22:20;1.43;;;1.00;;
64595;SDS011;51003;51.628;6.670;2022-09-09T18:24:48;1.63;;;1.27;;
64595;SDS011;51003;51.628;6.670;2022-09-09T18:27:15;6.00;;;2.07;;
64595;SDS011;51003;51.628;6.670;2022-09-09T18:29:41;1.50;;;1.33;;
64595;SDS011;51003;51.628;6.670;2022-09-09T18:32:06;3.07;;;1.70;;
64595;SDS011;51003;51.628;6.670;2022-09-09T18:34:32;5.77;;;2.00;;
64595;SDS011;51003;51.628;6.670;2022-09-09T18:36:57;4.60;;;1.70;;
64595;SDS011;51003;51.628;6.670;2022-09-09T18:39:25;2.70;;;1.60;;
64595;SDS011;51003;51.628;6.670;2022-09-09T18:41:53;2.50;;;2.03;;
64595;SDS011;51003;51.628;6.670;2022-09-09T18:44:23;2.90;;;1.67;;
64595;SDS011;51003;51.628;6.670;2022-09-09T18:46:51;30.27;;;3.43;;
64595;SDS011;51003;51.628;6.670;2022-09-09T18:49:18;8.13;;;2.67;;
64595;SDS011;51003;51.628;6.670;2022-09-09T18:51:44;8.70;;;2.70;;
64595;SDS011;51003;51.628;6.670;2022-09-09T18:54:17;19.27;;;3.80;;
64595;SDS011;51003;51.628;6.670;2022-09-09T18:56:44;9.53;;;2.80;;
64595;SDS011;51003;51.628;6.670;2022-09-09T18:59:11;2.20;;;1.67;;
64595;SDS011;51003;51.628;6.670;2022-09-09T19:01:38;2.23;;;1.50;;
64595;SDS011;51003;51.628;6.670;2022-09-09T19:04:04;1.80;;;1.37;;
64595;SDS011;51003;51.628;6.670;2022-09-09T19:06:37;2.30;;;1.50;;
64595;SDS011;51003;51.628;6.670;2022-09-09T19:09:05;6.63;;;1.30;;
64595;SDS011;51003;51.628;6.670;2022-09-09T19:11:39;1.83;;;1.47;;
64595;SDS011;51003;51.628;6.670;2022-09-09T19:14:05;1.37;;;1.07;;
64595;SDS011;51003;51.628;6.670;2022-09-09T19:16:34;1.20;;;1.10;;
64595;SDS011;51003;51.628;6.670;2022-09-09T19:19:29;1.83;;;1.00;;
64595;SDS011;51003;51.628;6.670;2022-09-09T19:21:56;1.87;;;1.13;;
64595;SDS011;51003;51.628;6.670;2022-09-09T19:24:23;1.80;;;1.40;;
64595;SDS011;51003;51.628;6.670;2022-09-09T19:26:52;6.00;;;1.30;;
64595;SDS011;51003;51.628;6.670;2022-09-09T19:29:39;3.87;;;1.60;;
64595;SDS011;51003;51.628;6.670;2022-09-09T19:32:06;4.27;;;1.50;;
64595;SDS011;51003;51.628;6.670;2022-09-09T19:34:32;5.37;;;2.07;;
64595;SDS011;51003;51.628;6.670;2022-09-09T19:36:57;3.17;;;1.90;;
64595;SDS011;51003;51.628;6.670;2022-09-09T19:39:46;5.60;;;1.90;;
64595;SDS011;51003;51.628;6.670;2022-09-09T19:42:55;5.07;;;1.90;;
64595;SDS011;51003;51.628;6.670;2022-09-09T19:45:21;2.93;;;1.90;;
64595;SDS011;51003;51.628;6.670;2022-09-09T19:47:47;2.33;;;1.80;;
64595;SDS011;51003;51.628;6.670;2022-09-09T19:50:27;2.23;;;2.00;;
64595;SDS011;51003;51.628;6.670;2022-09-09T19:52:53;5.60;;;2.50;;
64595;SDS011;51003;51.628;6.670;2022-09-09T19:55:21;14.43;;;2.80;;
64595;SDS011;51003;51.628;6.670;2022-09-09T20:01:33;3.77;;;2.47;;
64595;SDS011;51003;51.628;6.670;2022-09-09T20:04:00;2.80;;;2.30;;
64595;SDS011;51003;51.628;6.670;2022-09-09T20:06:58;5.20;;;2.63;;
64595;SDS011;51003;51.628;6.670;2022-09-09T20:09:24;3.20;;;2.87;;
64595;SDS011;51003;51.628;6.670;2022-09-09T20:12:12;7.33;;;2.50;;
64595;SDS011;51003;51.628;6.670;2022-09-09T20:14:37;3.30;;;2.43;;
64595;SDS011;51003;51.628;6.670;2022-09-09T20:19:48;3.67;;;2.10;;
64595;SDS011;51003;51.628;6.670;2022-09-09T20:22:14;3.50;;;2.70;;
64595;SDS011;51003;51.628;6.670;2022-09-09T20:24:40;4.57;;;2.90;;
64595;SDS011;51003;51.628;6.670;2022-09-09T20:27:25;4.90;;;2.97;;
64595;SDS011;51003;51.628;6.670;2022-09-09T20:29:52;2.97;;;2.63;;
64595;SDS011;51003;51.628;6.670;2022-09-09T20:32:17;9.13;;;2.53;;
64595;SDS011;51003;51.628;6.670;2022-09-09T20:34:43;3.17;;;2.97;;
64595;SDS011;51003;51.628;6.670;2022-09-09T20:37:09;4.33;;;2.53;;
64595;SDS011;51003;51.628;6.670;2022-09-09T20:39:35;3.00;;;2.80;;
64595;SDS011;51003;51.628;6.670;2022-09-09T20:42:01;6.50;;;2.57;;